Terminal Aerodrome Forecast
Issued by NWS Grand Forks, ND

Home | Current Version | Previous Version | Text Only | Print | Product List | Glossary Off
Versions: 1 2 3 4 5 6 7 8 9 10 11 12 13 14 15 16 17

645
FTUS43 KFGF 271459 AAA
TAFGFK
TAF AMD
KGFK 271459Z 2715/2812 VRB06KT P6SM BKN018 BKN150
     FM271600 VRB06KT P6SM SCT025 BKN120
     FM272000 VRB06KT P6SM BKN120
     FM280900 36005KT P6SM BKN060=

USA.gov is the U.S. government's official web portal to all federal, state and local government web resources and services.